CDT,Max TemperatureF,Mean TemperatureF,Min TemperatureF,Max Dew PointF,MeanDew PointF,Min DewpointF,Max Humidity, Mean Humidity, Min Humidity, Max Sea Level PressureIn, Mean Sea Level PressureIn, Min Sea Level PressureIn, Max VisibilityMiles, Mean VisibilityMiles, Min VisibilityMiles, Max Wind SpeedMPH, Mean Wind SpeedMPH, Max Gust SpeedMPH,PrecipitationIn, CloudCover, Events, WindDirDegrees
2013-10-1,84,78,71,70,68,66,88,77,58,30.05,30.00,29.94,10,10,6,15,9,21,0.00,5,,166
2013-10-2,80,74,69,70,68,64,88,81,69,30.10,30.04,30.00,10,10,2,12,7,17,1.59,4,Thunderstorm,133
2013-10-3,86,77,68,70,67,64,88,78,51,30.03,29.98,29.94,10,9,5,16,8,20,0.09,2,,143
2013-10-4,87,78,69,72,69,66,94,76,52,30.03,29.99,29.95,10,10,6,14,7,18,0.00,4,,153
2013-10-5,87,76,62,73,69,59,88,76,55,30.02,29.96,29.89,10,10,10,20,9,23,0.03,5,,208
2013-10-6,73,63,53,57,48,37,88,64,31,30.03,29.98,29.92,10,10,10,17,10,23,0.01,2,,300
2013-10-7,71,61,51,50,47,45,82,64,43,30.14,30.08,30.01,10,10,10,17,8,20,0.02,0,,346
2013-10-8,73,60,48,52,46,43,93,66,35,30.18,30.13,30.08,10,10,10,14,7,17,0.00,0,,19
2013-10-9,78,64,50,57,52,45,88,69,42,30.16,30.10,30.07,10,10,8,8,5,,0.00,0,,51
2013-10-10,75,66,57,61,58,55,94,82,57,30.16,30.08,30.02,10,6,0,8,5,,0.00,3,,136
2013-10-11,82,70,57,63,58,52,88,69,42,30.06,30.00,29.95,10,10,6,13,5,,0.00,1,,158
2013-10-12,77,70,62,66,62,57,94,81,65,30.14,30.05,29.98,10,10,4,12,5,,0.34,3,Thunderstorm,121
2013-10-13,78,69,60,63,59,54,94,77,53,30.29,30.22,30.14,10,8,0,16,7,23,0.00,2,,26
2013-10-14,78,68,57,64,56,48,83,68,51,30.24,30.15,30.05,10,10,8,13,7,,0.00,1,,61
2013-10-15,75,70,64,64,63,61,94,81,69,30.04,29.99,29.94,10,9,4,14,7,,0.46,7,,184
2013-10-16,64,60,55,63,54,48,94,80,63,30.07,30.01,29.96,10,10,3,21,9,24,0.20,8,,360
2013-10-17,69,61,53,54,50,45,88,71,46,30.08,30.02,29.99,10,10,9,10,5,,0.01,4,,316
2013-10-18,71,60,48,55,50,45,94,70,41,30.10,30.03,29.96,10,9,1,9,3,,0.00,3,,173
2013-10-19,60,54,48,55,45,36,88,68,42,30.12,30.06,29.96,10,10,10,17,7,22,0.00,4,,329
2013-10-20,68,55,42,45,42,39,87,64,37,30.13,30.06,30.00,10,10,10,13,5,16,0.00,0,,176
2013-10-21,73,60,48,54,47,41,88,66,41,30.08,30.04,29.99,10,10,9,16,5,21,0.00,4,,212
2013-10-22,69,58,48,50,45,39,88,65,33,30.11,30.04,29.95,10,10,8,14,8,,0.01,2,,300
2013-10-23,62,53,44,46,40,36,87,62,37,30.20,30.12,30.02,10,10,10,15,7,21,0.00,0,,346
2013-10-24,64,54,44,45,41,32,87,64,42,30.40,30.23,30.10,10,10,10,17,7,23,0.00,0,,19
2013-10-25,55,46,37,34,29,27,75,52,33,30.56,30.45,30.34,10,10,8,15,9,20,0.00,0,,58
2013-10-26,66,54,41,48,40,32,82,63,39,30.33,30.23,30.14,10,10,4,16,7,20,0.00,2,,208
2013-10-27,60,56,51,52,50,48,94,84,72,30.14,30.09,30.06,10,9,0,12,5,,0.00,7,,327
2013-10-28,66,60,53,57,53,50,94,85,68,30.22,30.17,30.09,10,6,0,7,5,,0.01,6,,109
2013-10-29,78,64,51,64,58,46,94,78,54,30.23,30.17,30.10,10,7,0,20,7,23,0.00,2,,157
2013-10-30,73,68,64,64,62,59,88,79,69,30.16,30.08,29.95,10,10,10,16,10,21,0.00,2,,164
2013-10-31,73,65,57,66,60,48,94,77,52,29.82,29.70,29.58,10,10,8,30,19,36,0.34,4,,199